sensor_id;sensor_type;location;lat;lon;timestamp;P1;durP1;ratioP1;P2;durP2;ratioP2
4434;SDS011;46552;52.150;8.428;2022-10-03T00:00:01;17.93;;;3.80;;
4434;SDS011;46552;52.150;8.428;2022-10-03T00:02:43;21.47;;;4.60;;
4434;SDS011;46552;52.150;8.428;2022-10-03T00:05:32;15.53;;;2.70;;
4434;SDS011;46552;52.150;8.428;2022-10-03T00:08:16;15.83;;;4.40;;
4434;SDS011;46552;52.150;8.428;2022-10-03T00:10:53;28.57;;;3.50;;
4434;SDS011;46552;52.150;8.428;2022-10-03T00:13:31;20.57;;;3.40;;
4434;SDS011;46552;52.150;8.428;2022-10-03T00:16:08;16.67;;;3.13;;
4434;SDS011;46552;52.150;8.428;2022-10-03T00:18:44;27.43;;;3.50;;
4434;SDS011;46552;52.150;8.428;2022-10-03T00:21:29;18.57;;;4.23;;
4434;SDS011;46552;52.150;8.428;2022-10-03T00:24:12;20.83;;;3.43;;
4434;SDS011;46552;52.150;8.428;2022-10-03T00:26:49;17.50;;;3.43;;
4434;SDS011;46552;52.150;8.428;2022-10-03T00:29:28;20.43;;;3.10;;
4434;SDS011;46552;52.150;8.428;2022-10-03T00:32:22;30.77;;;4.80;;
4434;SDS011;46552;52.150;8.428;2022-10-03T00:35:04;25.90;;;4.47;;
4434;SDS011;46552;52.150;8.428;2022-10-03T00:37:44;20.90;;;4.80;;
4434;SDS011;46552;52.150;8.428;2022-10-03T00:40:36;13.97;;;3.80;;
4434;SDS011;46552;52.150;8.428;2022-10-03T00:49:24;22.23;;;3.80;;
4434;SDS011;46552;52.150;8.428;2022-10-03T00:52:45;14.47;;;3.60;;
4434;SDS011;46552;52.150;8.428;2022-10-03T00:55:28;35.87;;;4.27;;
4434;SDS011;46552;52.150;8.428;2022-10-03T01:00:56;15.00;;;4.47;;
4434;SDS011;46552;52.150;8.428;2022-10-03T01:03:34;17.43;;;3.80;;
4434;SDS011;46552;52.150;8.428;2022-10-03T01:06:18;19.73;;;4.10;;
4434;SDS011;46552;52.150;8.428;2022-10-03T01:14:57;14.57;;;3.60;;
4434;SDS011;46552;52.150;8.428;2022-10-03T01:17:41;19.77;;;4.47;;
4434;SDS011;46552;52.150;8.428;2022-10-03T01:20:27;19.50;;;4.23;;
4434;SDS011;46552;52.150;8.428;2022-10-03T01:26:02;16.33;;;3.90;;
4434;SDS011;46552;52.150;8.428;2022-10-03T01:28:40;17.40;;;3.67;;
4434;SDS011;46552;52.150;8.428;2022-10-03T01:31:33;18.47;;;4.30;;
4434;SDS011;46552;52.150;8.428;2022-10-03T01:34:11;16.93;;;4.40;;
4434;SDS011;46552;52.150;8.428;2022-10-03T01:36:46;19.43;;;4.20;;
4434;SDS011;46552;52.150;8.428;2022-10-03T01:39:25;35.20;;;5.67;;
4434;SDS011;46552;52.150;8.428;2022-10-03T01:41:58;11.77;;;2.67;;
4434;SDS011;46552;52.150;8.428;2022-10-03T01:44:35;25.23;;;4.30;;
4434;SDS011;46552;52.150;8.428;2022-10-03T01:47:14;14.70;;;3.70;;
4434;SDS011;46552;52.150;8.428;2022-10-03T01:49:52;20.10;;;4.27;;
4434;SDS011;46552;52.150;8.428;2022-10-03T01:52:29;20.40;;;6.03;;
4434;SDS011;46552;52.150;8.428;2022-10-03T01:55:05;32.77;;;4.83;;
4434;SDS011;46552;52.150;8.428;2022-10-03T01:57:38;26.37;;;4.10;;
4434;SDS011;46552;52.150;8.428;2022-10-03T02:00:13;27.77;;;3.43;;
4434;SDS011;46552;52.150;8.428;2022-10-03T02:02:43;28.40;;;4.43;;
4434;SDS011;46552;52.150;8.428;2022-10-03T02:05:15;19.90;;;4.03;;
4434;SDS011;46552;52.150;8.428;2022-10-03T02:07:52;22.53;;;4.43;;
4434;SDS011;46552;52.150;8.428;2022-10-03T02:10:40;27.17;;;3.80;;
4434;SDS011;46552;52.150;8.428;2022-10-03T02:13:12;22.63;;;3.60;;
4434;SDS011;46552;52.150;8.428;2022-10-03T02:15:54;23.57;;;4.80;;
4434;SDS011;46552;52.150;8.428;2022-10-03T02:18:28;23.53;;;4.00;;
4434;SDS011;46552;52.150;8.428;2022-10-03T02:21:08;19.37;;;4.03;;
4434;SDS011;46552;52.150;8.428;2022-10-03T02:23:41;27.37;;;4.37;;
4434;SDS011;46552;52.150;8.428;2022-10-03T02:26:25;32.70;;;5.47;;
4434;SDS011;46552;52.150;8.428;2022-10-03T02:29:23;21.23;;;5.13;;
4434;SDS011;46552;52.150;8.428;2022-10-03T02:32:09;21.57;;;4.70;;
4434;SDS011;46552;52.150;8.428;2022-10-03T02:35:19;19.63;;;3.30;;
4434;SDS011;46552;52.150;8.428;2022-10-03T02:38:07;12.33;;;4.03;;
4434;SDS011;46552;52.150;8.428;2022-10-03T02:40:56;20.70;;;5.47;;
4434;SDS011;46552;52.150;8.428;2022-10-03T02:47:03;17.00;;;4.27;;
4434;SDS011;46552;52.150;8.428;2022-10-03T02:56:10;19.50;;;5.03;;
4434;SDS011;46552;52.150;8.428;2022-10-03T03:08:35;22.57;;;4.67;;
4434;SDS011;46552;52.150;8.428;2022-10-03T03:11:28;14.07;;;5.47;;
4434;SDS011;46552;52.150;8.428;2022-10-03T03:20:09;16.10;;;6.17;;
4434;SDS011;46552;52.150;8.428;2022-10-03T03:23:03;19.13;;;6.47;;
4434;SDS011;46552;52.150;8.428;2022-10-03T03:25:55;29.67;;;9.10;;
4434;SDS011;46552;52.150;8.428;2022-10-03T03:28:36;21.80;;;5.73;;
4434;SDS011;46552;52.150;8.428;2022-10-03T03:31:13;32.73;;;8.97;;
4434;SDS011;46552;52.150;8.428;2022-10-03T03:33:49;17.10;;;6.53;;
4434;SDS011;46552;52.150;8.428;2022-10-03T03:36:26;28.20;;;7.93;;
4434;SDS011;46552;52.150;8.428;2022-10-03T03:39:09;22.30;;;6.77;;
4434;SDS011;46552;52.150;8.428;2022-10-03T03:41:53;19.53;;;7.17;;
4434;SDS011;46552;52.150;8.428;2022-10-03T03:44:43;27.67;;;9.67;;
4434;SDS011;46552;52.150;8.428;2022-10-03T03:47:25;16.60;;;7.47;;
4434;SDS011;46552;52.150;8.428;2022-10-03T03:50:23;16.93;;;7.23;;
4434;SDS011;46552;52.150;8.428;2022-10-03T03:53:11;16.87;;;7.20;;
4434;SDS011;46552;52.150;8.428;2022-10-03T03:56:01;23.80;;;8.03;;
4434;SDS011;46552;52.150;8.428;2022-10-03T03:58:55;24.23;;;8.03;;
4434;SDS011;46552;52.150;8.428;2022-10-03T04:01:40;16.67;;;7.50;;
4434;SDS011;46552;52.150;8.428;2022-10-03T04:04:32;16.80;;;6.20;;
4434;SDS011;46552;52.150;8.428;2022-10-03T04:07:11;26.30;;;7.27;;
4434;SDS011;46552;52.150;8.428;2022-10-03T04:10:00;16.03;;;7.33;;
4434;SDS011;46552;52.150;8.428;2022-10-03T04:12:51;18.17;;;7.83;;
4434;SDS011;46552;52.150;8.428;2022-10-03T04:15:33;17.60;;;6.97;;
4434;SDS011;46552;52.150;8.428;2022-10-03T04:18:17;15.93;;;8.20;;
4434;SDS011;46552;52.150;8.428;2022-10-03T04:21:19;16.93;;;7.13;;
4434;SDS011;46552;52.150;8.428;2022-10-03T04:24:06;21.33;;;8.27;;
4434;SDS011;46552;52.150;8.428;2022-10-03T04:27:02;19.43;;;7.77;;
4434;SDS011;46552;52.150;8.428;2022-10-03T04:29:43;17.77;;;8.00;;
4434;SDS011;46552;52.150;8.428;2022-10-03T04:32:32;14.97;;;7.50;;
4434;SDS011;46552;52.150;8.428;2022-10-03T04:35:24;27.10;;;8.87;;
4434;SDS011;46552;52.150;8.428;2022-10-03T04:38:17;34.40;;;7.80;;
4434;SDS011;46552;52.150;8.428;2022-10-03T04:40:56;20.93;;;7.50;;
4434;SDS011;46552;52.150;8.428;2022-10-03T04:43:33;31.30;;;9.37;;
4434;SDS011;46552;52.150;8.428;2022-10-03T04:46:13;16.70;;;9.00;;
4434;SDS011;46552;52.150;8.428;2022-10-03T04:48:49;17.40;;;7.27;;
4434;SDS011;46552;52.150;8.428;2022-10-03T04:51:26;13.90;;;7.93;;
4434;SDS011;46552;52.150;8.428;2022-10-03T04:54:04;21.97;;;7.47;;
4434;SDS011;46552;52.150;8.428;2022-10-03T04:56:43;16.33;;;8.10;;
4434;SDS011;46552;52.150;8.428;2022-10-03T04:59:25;18.97;;;8.40;;
4434;SDS011;46552;52.150;8.428;2022-10-03T05:02:09;19.23;;;7.93;;
4434;SDS011;46552;52.150;8.428;2022-10-03T05:04:53;19.90;;;8.43;;
4434;SDS011;46552;52.150;8.428;2022-10-03T05:07:49;19.47;;;9.00;;
4434;SDS011;46552;52.150;8.428;2022-10-03T05:10:32;24.33;;;8.57;;
4434;SDS011;46552;52.150;8.428;2022-10-03T05:13:11;18.10;;;8.03;;
4434;SDS011;46552;52.150;8.428;2022-10-03T05:15:47;18.37;;;6.27;;
4434;SDS011;46552;52.150;8.428;2022-10-03T05:18:25;16.60;;;7.77;;
4434;SDS011;46552;52.150;8.428;2022-10-03T05:21:03;19.90;;;8.37;;
4434;SDS011;46552;52.150;8.428;2022-10-03T05:23:39;18.13;;;8.60;;
4434;SDS011;46552;52.150;8.428;2022-10-03T05:26:15;21.10;;;9.67;;
4434;SDS011;46552;52.150;8.428;2022-10-03T05:28:50;18.80;;;9.77;;
4434;SDS011;46552;52.150;8.428;2022-10-03T05:31:29;16.40;;;9.13;;
4434;SDS011;46552;52.150;8.428;2022-10-03T05:34:09;21.90;;;8.17;;
4434;SDS011;46552;52.150;8.428;2022-10-03T05:36:48;21.30;;;8.60;;
4434;SDS011;46552;52.150;8.428;2022-10-03T05:39:27;24.57;;;9.37;;
4434;SDS011;46552;52.150;8.428;2022-10-03T05:45:00;16.77;;;7.83;;
4434;SDS011;46552;52.150;8.428;2022-10-03T05:47:30;18.90;;;7.80;;
4434;SDS011;46552;52.150;8.428;2022-10-03T05:53:15;14.07;;;7.17;;
4434;SDS011;46552;52.150;8.428;2022-10-03T05:55:58;15.10;;;7.70;;
4434;SDS011;46552;52.150;8.428;2022-10-03T06:01:54;16.67;;;7.50;;
4434;SDS011;46552;52.150;8.428;2022-10-03T06:04:52;13.93;;;8.57;;
4434;SDS011;46552;52.150;8.428;2022-10-03T06:07:43;25.13;;;8.20;;
4434;SDS011;46552;52.150;8.428;2022-10-03T06:10:26;17.23;;;8.10;;
4434;SDS011;46552;52.150;8.428;2022-10-03T06:13:19;22.80;;;10.53;;
4434;SDS011;46552;52.150;8.428;2022-10-03T06:15:56;19.83;;;11.67;;
4434;SDS011;46552;52.150;8.428;2022-10-03T06:18:32;26.60;;;15.40;;
4434;SDS011;46552;52.150;8.428;2022-10-03T06:21:48;24.70;;;14.37;;
4434;SDS011;46552;52.150;8.428;2022-10-03T06:34:33;64.27;;;32.10;;
4434;SDS011;46552;52.150;8.428;2022-10-03T06:37:25;45.40;;;19.90;;
4434;SDS011;46552;52.150;8.428;2022-10-03T06:40:31;32.23;;;13.80;;
4434;SDS011;46552;52.150;8.428;2022-10-03T06:43:24;25.60;;;14.40;;
4434;SDS011;46552;52.150;8.428;2022-10-03T06:46:23;26.97;;;11.20;;
4434;SDS011;46552;52.150;8.428;2022-10-03T06:52:37;22.53;;;9.30;;
4434;SDS011;46552;52.150;8.428;2022-10-03T06:55:52;18.90;;;10.40;;
4434;SDS011;46552;52.150;8.428;2022-10-03T07:08:09;16.07;;;7.93;;
4434;SDS011;46552;52.150;8.428;2022-10-03T07:11:12;15.80;;;8.07;;
4434;SDS011;46552;52.150;8.428;2022-10-03T07:14:05;17.63;;;8.17;;
4434;SDS011;46552;52.150;8.428;2022-10-03T07:19:46;21.87;;;9.03;;
4434;SDS011;46552;52.150;8.428;2022-10-03T07:22:46;16.63;;;7.70;;
4434;SDS011;46552;52.150;8.428;2022-10-03T07:28:56;14.87;;;7.77;;
4434;SDS011;46552;52.150;8.428;2022-10-03T07:31:48;14.73;;;7.83;;
4434;SDS011;46552;52.150;8.428;2022-10-03T07:37:59;21.17;;;6.50;;
4434;SDS011;46552;52.150;8.428;2022-10-03T07:41:19;16.23;;;7.77;;
4434;SDS011;46552;52.150;8.428;2022-10-03T07:44:18;15.40;;;6.60;;
4434;SDS011;46552;52.150;8.428;2022-10-03T07:50:29;25.73;;;6.63;;
4434;SDS011;46552;52.150;8.428;2022-10-03T07:53:25;19.83;;;6.47;;
4434;SDS011;46552;52.150;8.428;2022-10-03T07:56:19;12.03;;;6.17;;
4434;SDS011;46552;52.150;8.428;2022-10-03T07:59:25;16.00;;;6.70;;
4434;SDS011;46552;52.150;8.428;2022-10-03T08:05:20;20.20;;;9.60;;
4434;SDS011;46552;52.150;8.428;2022-10-03T08:08:09;18.53;;;6.50;;
4434;SDS011;46552;52.150;8.428;2022-10-03T08:10:56;16.13;;;6.67;;
4434;SDS011;46552;52.150;8.428;2022-10-03T08:13:51;11.60;;;5.80;;
4434;SDS011;46552;52.150;8.428;2022-10-03T08:16:37;18.20;;;7.57;;
4434;SDS011;46552;52.150;8.428;2022-10-03T08:19:31;15.97;;;6.87;;
4434;SDS011;46552;52.150;8.428;2022-10-03T08:22:24;12.90;;;5.63;;
4434;SDS011;46552;52.150;8.428;2022-10-03T08:25:09;10.53;;;4.90;;
4434;SDS011;46552;52.150;8.428;2022-10-03T08:31:03;9.97;;;5.80;;
4434;SDS011;46552;52.150;8.428;2022-10-03T08:37:01;16.13;;;5.70;;
4434;SDS011;46552;52.150;8.428;2022-10-03T08:43:13;9.67;;;4.60;;
4434;SDS011;46552;52.150;8.428;2022-10-03T08:46:19;9.60;;;5.00;;
4434;SDS011;46552;52.150;8.428;2022-10-03T08:49:12;12.30;;;4.67;;
4434;SDS011;46552;52.150;8.428;2022-10-03T08:51:59;16.90;;;4.60;;
4434;SDS011;46552;52.150;8.428;2022-10-03T08:54:49;14.83;;;4.40;;
4434;SDS011;46552;52.150;8.428;2022-10-03T08:57:45;10.33;;;5.23;;
4434;SDS011;46552;52.150;8.428;2022-10-03T09:00:30;10.27;;;4.57;;
4434;SDS011;46552;52.150;8.428;2022-10-03T09:03:22;11.10;;;5.70;;
4434;SDS011;46552;52.150;8.428;2022-10-03T09:06:27;11.40;;;5.83;;
4434;SDS011;46552;52.150;8.428;2022-10-03T09:12:39;9.10;;;5.50;;
4434;SDS011;46552;52.150;8.428;2022-10-03T09:15:37;7.17;;;4.30;;
4434;SDS011;46552;52.150;8.428;2022-10-03T09:18:33;15.80;;;6.50;;
4434;SDS011;46552;52.150;8.428;2022-10-03T09:24:42;16.43;;;6.60;;
4434;SDS011;46552;52.150;8.428;2022-10-03T09:30:54;10.60;;;5.10;;
4434;SDS011;46552;52.150;8.428;2022-10-03T09:33:49;15.47;;;5.87;;
4434;SDS011;46552;52.150;8.428;2022-10-03T09:37:02;16.33;;;6.10;;
4434;SDS011;46552;52.150;8.428;2022-10-03T09:39:57;14.00;;;4.30;;
4434;SDS011;46552;52.150;8.428;2022-10-03T09:42:55;12.50;;;5.23;;
4434;SDS011;46552;52.150;8.428;2022-10-03T09:45:56;11.90;;;4.57;;
4434;SDS011;46552;52.150;8.428;2022-10-03T09:48:47;20.43;;;4.70;;
4434;SDS011;46552;52.150;8.428;2022-10-03T09:51:51;9.70;;;3.87;;
4434;SDS011;46552;52.150;8.428;2022-10-03T09:54:50;12.97;;;4.10;;
4434;SDS011;46552;52.150;8.428;2022-10-03T10:00:28;9.67;;;3.30;;
4434;SDS011;46552;52.150;8.428;2022-10-03T10:06:17;12.30;;;3.27;;
4434;SDS011;46552;52.150;8.428;2022-10-03T10:15:31;13.63;;;4.67;;
4434;SDS011;46552;52.150;8.428;2022-10-03T10:18:34;7.43;;;3.30;;
4434;SDS011;46552;52.150;8.428;2022-10-03T10:21:31;12.83;;;4.40;;
4434;SDS011;46552;52.150;8.428;2022-10-03T10:27:29;16.33;;;5.00;;
4434;SDS011;46552;52.150;8.428;2022-10-03T10:30:21;8.67;;;4.27;;
4434;SDS011;46552;52.150;8.428;2022-10-03T10:33:33;12.83;;;4.30;;
4434;SDS011;46552;52.150;8.428;2022-10-03T10:52:17;15.73;;;3.90;;
4434;SDS011;46552;52.150;8.428;2022-10-03T10:58:28;7.77;;;3.67;;
4434;SDS011;46552;52.150;8.428;2022-10-03T11:04:59;17.13;;;3.57;;
4434;SDS011;46552;52.150;8.428;2022-10-03T11:11:17;10.43;;;3.57;;
4434;SDS011;46552;52.150;8.428;2022-10-03T11:14:21;16.97;;;2.80;;
4434;SDS011;46552;52.150;8.428;2022-10-03T11:17:27;11.43;;;2.90;;
4434;SDS011;46552;52.150;8.428;2022-10-03T11:20:33;9.43;;;2.30;;
4434;SDS011;46552;52.150;8.428;2022-10-03T11:26:37;6.60;;;2.60;;
4434;SDS011;46552;52.150;8.428;2022-10-03T11:32:45;15.80;;;2.73;;
4434;SDS011;46552;52.150;8.428;2022-10-03T11:38:46;9.57;;;1.87;;
4434;SDS011;46552;52.150;8.428;2022-10-03T11:41:27;6.07;;;2.13;;
4434;SDS011;46552;52.150;8.428;2022-10-03T11:44:09;10.27;;;2.87;;
4434;SDS011;46552;52.150;8.428;2022-10-03T11:53:00;14.13;;;2.80;;
4434;SDS011;46552;52.150;8.428;2022-10-03T11:55:37;11.10;;;1.97;;
4434;SDS011;46552;52.150;8.428;2022-10-03T11:58:23;5.77;;;2.10;;
4434;SDS011;46552;52.150;8.428;2022-10-03T12:01:04;6.50;;;2.50;;
4434;SDS011;46552;52.150;8.428;2022-10-03T12:03:44;7.80;;;2.13;;
4434;SDS011;46552;52.150;8.428;2022-10-03T12:06:22;11.03;;;2.20;;
4434;SDS011;46552;52.150;8.428;2022-10-03T12:09:36;8.90;;;2.47;;
4434;SDS011;46552;52.150;8.428;2022-10-03T12:12:13;6.47;;;2.00;;
4434;SDS011;46552;52.150;8.428;2022-10-03T12:14:52;7.93;;;2.10;;
4434;SDS011;46552;52.150;8.428;2022-10-03T12:17:25;7.20;;;2.13;;
4434;SDS011;46552;52.150;8.428;2022-10-03T12:19:59;13.93;;;2.33;;
4434;SDS011;46552;52.150;8.428;2022-10-03T12:22:35;11.50;;;2.40;;
4434;SDS011;46552;52.150;8.428;2022-10-03T12:25:17;9.60;;;2.30;;
4434;SDS011;46552;52.150;8.428;2022-10-03T12:27:59;9.33;;;3.37;;
4434;SDS011;46552;52.150;8.428;2022-10-03T12:30:33;7.10;;;2.00;;
4434;SDS011;46552;52.150;8.428;2022-10-03T12:33:11;11.00;;;3.10;;
4434;SDS011;46552;52.150;8.428;2022-10-03T12:35:52;11.93;;;2.50;;
4434;SDS011;46552;52.150;8.428;2022-10-03T12:38:30;11.53;;;2.33;;
4434;SDS011;46552;52.150;8.428;2022-10-03T12:41:13;10.97;;;1.83;;
4434;SDS011;46552;52.150;8.428;2022-10-03T12:43:51;11.03;;;2.17;;
4434;SDS011;46552;52.150;8.428;2022-10-03T12:46:33;15.77;;;2.20;;
4434;SDS011;46552;52.150;8.428;2022-10-03T12:49:09;20.43;;;2.67;;
4434;SDS011;46552;52.150;8.428;2022-10-03T12:51:50;9.33;;;1.70;;
4434;SDS011;46552;52.150;8.428;2022-10-03T12:57:25;6.40;;;1.17;;
4434;SDS011;46552;52.150;8.428;2022-10-03T13:00:16;10.37;;;2.27;;
4434;SDS011;46552;52.150;8.428;2022-10-03T13:02:48;7.47;;;1.90;;
4434;SDS011;46552;52.150;8.428;2022-10-03T13:05:41;11.30;;;2.43;;
4434;SDS011;46552;52.150;8.428;2022-10-03T13:08:30;12.93;;;1.87;;
4434;SDS011;46552;52.150;8.428;2022-10-03T13:11:12;6.67;;;2.30;;
4434;SDS011;46552;52.150;8.428;2022-10-03T13:13:54;13.80;;;2.70;;
4434;SDS011;46552;52.150;8.428;2022-10-03T13:16:32;8.00;;;2.27;;
4434;SDS011;46552;52.150;8.428;2022-10-03T13:19:07;13.70;;;2.47;;
4434;SDS011;46552;52.150;8.428;2022-10-03T13:21:54;12.20;;;2.10;;
4434;SDS011;46552;52.150;8.428;2022-10-03T13:24:33;10.00;;;3.60;;
4434;SDS011;46552;52.150;8.428;2022-10-03T13:27:09;12.60;;;4.90;;
4434;SDS011;46552;52.150;8.428;2022-10-03T13:29:52;10.80;;;2.57;;
4434;SDS011;46552;52.150;8.428;2022-10-03T13:32:27;11.60;;;3.93;;
4434;SDS011;46552;52.150;8.428;2022-10-03T13:35:05;17.87;;;6.87;;
4434;SDS011;46552;52.150;8.428;2022-10-03T13:41:11;15.40;;;5.63;;
4434;SDS011;46552;52.150;8.428;2022-10-03T13:43:50;8.13;;;2.20;;
4434;SDS011;46552;52.150;8.428;2022-10-03T13:46:25;13.20;;;3.27;;
4434;SDS011;46552;52.150;8.428;2022-10-03T13:48:58;7.80;;;3.13;;
4434;SDS011;46552;52.150;8.428;2022-10-03T13:51:37;8.23;;;3.20;;
4434;SDS011;46552;52.150;8.428;2022-10-03T13:54:13;10.40;;;2.57;;
4434;SDS011;46552;52.150;8.428;2022-10-03T13:56:51;12.40;;;2.43;;
4434;SDS011;46552;52.150;8.428;2022-10-03T14:02:26;13.43;;;5.30;;
4434;SDS011;46552;52.150;8.428;2022-10-03T14:05:12;10.90;;;2.23;;
4434;SDS011;46552;52.150;8.428;2022-10-03T14:07:56;6.93;;;2.10;;
4434;SDS011;46552;52.150;8.428;2022-10-03T14:13:27;4.50;;;1.57;;
4434;SDS011;46552;52.150;8.428;2022-10-03T14:16:02;4.83;;;1.33;;
4434;SDS011;46552;52.150;8.428;2022-10-03T14:18:40;10.03;;;1.53;;
4434;SDS011;46552;52.150;8.428;2022-10-03T14:24:15;8.20;;;2.13;;
4434;SDS011;46552;52.150;8.428;2022-10-03T14:27:05;10.27;;;2.70;;
4434;SDS011;46552;52.150;8.428;2022-10-03T14:29:46;7.03;;;1.77;;
4434;SDS011;46552;52.150;8.428;2022-10-03T14:32:25;8.17;;;3.17;;
4434;SDS011;46552;52.150;8.428;2022-10-03T14:35:03;10.03;;;2.37;;
4434;SDS011;46552;52.150;8.428;2022-10-03T14:37:43;6.83;;;1.70;;
4434;SDS011;46552;52.150;8.428;2022-10-03T14:40:19;8.27;;;2.33;;
4434;SDS011;46552;52.150;8.428;2022-10-03T14:43:02;7.80;;;2.33;;
4434;SDS011;46552;52.150;8.428;2022-10-03T14:45:42;10.20;;;2.30;;
4434;SDS011;46552;52.150;8.428;2022-10-03T14:48:15;6.57;;;3.57;;
4434;SDS011;46552;52.150;8.428;2022-10-03T14:50:46;11.33;;;3.50;;
4434;SDS011;46552;52.150;8.428;2022-10-03T14:53:17;10.40;;;2.63;;
4434;SDS011;46552;52.150;8.428;2022-10-03T14:55:52;10.17;;;4.73;;
4434;SDS011;46552;52.150;8.428;2022-10-03T14:58:24;5.87;;;2.57;;
4434;SDS011;46552;52.150;8.428;2022-10-03T15:01:02;9.83;;;3.10;;
4434;SDS011;46552;52.150;8.428;2022-10-03T15:03:35;18.10;;;6.67;;
4434;SDS011;46552;52.150;8.428;2022-10-03T15:08:59;11.60;;;3.00;;
4434;SDS011;46552;52.150;8.428;2022-10-03T15:11:30;9.23;;;2.60;;
4434;SDS011;46552;52.150;8.428;2022-10-03T15:14:00;26.00;;;14.27;;
4434;SDS011;46552;52.150;8.428;2022-10-03T15:16:32;30.57;;;13.10;;
4434;SDS011;46552;52.150;8.428;2022-10-03T15:19:07;11.40;;;3.60;;
4434;SDS011;46552;52.150;8.428;2022-10-03T15:21:42;17.47;;;4.10;;
4434;SDS011;46552;52.150;8.428;2022-10-03T15:24:12;12.50;;;3.70;;
4434;SDS011;46552;52.150;8.428;2022-10-03T15:26:47;13.10;;;3.80;;
4434;SDS011;46552;52.150;8.428;2022-10-03T15:29:20;14.27;;;6.50;;
4434;SDS011;46552;52.150;8.428;2022-10-03T15:31:52;20.20;;;6.33;;
4434;SDS011;46552;52.150;8.428;2022-10-03T15:34:22;13.57;;;3.90;;
4434;SDS011;46552;52.150;8.428;2022-10-03T15:36:52;7.80;;;3.17;;
4434;SDS011;46552;52.150;8.428;2022-10-03T15:39:23;12.33;;;3.60;;
4434;SDS011;46552;52.150;8.428;2022-10-03T15:42:18;14.03;;;2.77;;
4434;SDS011;46552;52.150;8.428;2022-10-03T15:44:50;10.37;;;2.70;;
4434;SDS011;46552;52.150;8.428;2022-10-03T15:47:21;4.10;;;1.57;;
4434;SDS011;46552;52.150;8.428;2022-10-03T15:49:52;7.60;;;2.00;;
4434;SDS011;46552;52.150;8.428;2022-10-03T15:52:22;7.17;;;1.83;;
4434;SDS011;46552;52.150;8.428;2022-10-03T15:54:58;9.93;;;2.40;;
4434;SDS011;46552;52.150;8.428;2022-10-03T15:57:30;8.83;;;2.43;;
4434;SDS011;46552;52.150;8.428;2022-10-03T16:00:01;19.53;;;2.10;;
4434;SDS011;46552;52.150;8.428;2022-10-03T16:02:35;10.50;;;2.60;;
4434;SDS011;46552;52.150;8.428;2022-10-03T16:05:12;12.77;;;1.87;;
4434;SDS011;46552;52.150;8.428;2022-10-03T16:07:45;7.53;;;1.87;;
4434;SDS011;46552;52.150;8.428;2022-10-03T16:10:20;11.53;;;2.30;;
4434;SDS011;46552;52.150;8.428;2022-10-03T16:12:53;7.97;;;2.30;;
4434;SDS011;46552;52.150;8.428;2022-10-03T16:15:25;15.60;;;4.70;;
4434;SDS011;46552;52.150;8.428;2022-10-03T16:18:04;15.00;;;6.23;;
4434;SDS011;46552;52.150;8.428;2022-10-03T16:20:37;7.97;;;3.30;;
4434;SDS011;46552;52.150;8.428;2022-10-03T16:23:10;8.77;;;2.47;;
4434;SDS011;46552;52.150;8.428;2022-10-03T16:25:44;10.20;;;3.07;;
4434;SDS011;46552;52.150;8.428;2022-10-03T16:28:15;10.07;;;2.30;;
4434;SDS011;46552;52.150;8.428;2022-10-03T16:30:48;10.50;;;2.13;;
4434;SDS011;46552;52.150;8.428;2022-10-03T16:33:25;5.83;;;1.70;;
4434;SDS011;46552;52.150;8.428;2022-10-03T16:35:58;10.13;;;2.57;;
4434;SDS011;46552;52.150;8.428;2022-10-03T16:38:29;5.50;;;1.13;;
4434;SDS011;46552;52.150;8.428;2022-10-03T16:41:01;7.60;;;2.10;;
4434;SDS011;46552;52.150;8.428;2022-10-03T16:43:31;5.90;;;1.57;;
4434;SDS011;46552;52.150;8.428;2022-10-03T16:46:00;10.23;;;2.10;;
4434;SDS011;46552;52.150;8.428;2022-10-03T16:48:33;6.30;;;2.10;;
4434;SDS011;46552;52.150;8.428;2022-10-03T16:51:19;7.33;;;1.90;;
4434;SDS011;46552;52.150;8.428;2022-10-03T16:53:49;9.07;;;2.50;;
4434;SDS011;46552;52.150;8.428;2022-10-03T16:56:19;11.73;;;2.27;;
4434;SDS011;46552;52.150;8.428;2022-10-03T16:58:50;8.80;;;2.47;;
4434;SDS011;46552;52.150;8.428;2022-10-03T17:01:24;15.57;;;2.40;;
4434;SDS011;46552;52.150;8.428;2022-10-03T17:04:01;11.40;;;2.77;;
4434;SDS011;46552;52.150;8.428;2022-10-03T17:06:39;6.70;;;2.43;;
4434;SDS011;46552;52.150;8.428;2022-10-03T17:12:03;7.20;;;2.50;;
4434;SDS011;46552;52.150;8.428;2022-10-03T17:14:34;8.23;;;1.97;;
4434;SDS011;46552;52.150;8.428;2022-10-03T17:17:07;8.73;;;2.33;;
4434;SDS011;46552;52.150;8.428;2022-10-03T17:19:52;11.97;;;2.37;;
4434;SDS011;46552;52.150;8.428;2022-10-03T17:22:26;6.33;;;1.87;;
4434;SDS011;46552;52.150;8.428;2022-10-03T17:25:00;8.13;;;2.20;;
4434;SDS011;46552;52.150;8.428;2022-10-03T17:27:31;6.63;;;2.23;;
4434;SDS011;46552;52.150;8.428;2022-10-03T17:30:04;5.33;;;2.20;;
4434;SDS011;46552;52.150;8.428;2022-10-03T17:32:55;10.23;;;4.70;;
4434;SDS011;46552;52.150;8.428;2022-10-03T17:35:33;7.60;;;3.10;;
4434;SDS011;46552;52.150;8.428;2022-10-03T17:38:11;13.00;;;3.50;;
4434;SDS011;46552;52.150;8.428;2022-10-03T17:40:49;24.17;;;4.60;;
4434;SDS011;46552;52.150;8.428;2022-10-03T17:43:26;50.20;;;5.07;;
4434;SDS011;46552;52.150;8.428;2022-10-03T17:46:03;17.97;;;3.50;;
4434;SDS011;46552;52.150;8.428;2022-10-03T17:48:39;11.90;;;2.73;;
4434;SDS011;46552;52.150;8.428;2022-10-03T17:54:09;10.97;;;3.40;;
4434;SDS011;46552;52.150;8.428;2022-10-03T17:56:40;9.10;;;3.53;;
4434;SDS011;46552;52.150;8.428;2022-10-03T17:59:11;12.90;;;3.30;;
4434;SDS011;46552;52.150;8.428;2022-10-03T18:01:43;9.23;;;3.13;;
4434;SDS011;46552;52.150;8.428;2022-10-03T18:04:16;11.70;;;4.10;;
4434;SDS011;46552;52.150;8.428;2022-10-03T18:06:46;8.87;;;3.53;;
4434;SDS011;46552;52.150;8.428;2022-10-03T18:09:22;18.30;;;4.40;;
4434;SDS011;46552;52.150;8.428;2022-10-03T18:11:53;16.03;;;3.80;;
4434;SDS011;46552;52.150;8.428;2022-10-03T18:14:32;10.27;;;3.90;;
4434;SDS011;46552;52.150;8.428;2022-10-03T18:17:09;13.80;;;5.00;;
4434;SDS011;46552;52.150;8.428;2022-10-03T18:19:46;16.80;;;4.40;;
4434;SDS011;46552;52.150;8.428;2022-10-03T18:22:25;20.47;;;4.47;;
4434;SDS011;46552;52.150;8.428;2022-10-03T18:24:57;16.87;;;5.90;;
4434;SDS011;46552;52.150;8.428;2022-10-03T18:30:42;8.83;;;4.63;;
4434;SDS011;46552;52.150;8.428;2022-10-03T18:33:12;10.83;;;4.27;;
4434;SDS011;46552;52.150;8.428;2022-10-03T18:35:43;9.60;;;4.63;;
4434;SDS011;46552;52.150;8.428;2022-10-03T18:38:16;15.30;;;3.90;;
4434;SDS011;46552;52.150;8.428;2022-10-03T18:40:51;7.80;;;3.30;;
4434;SDS011;46552;52.150;8.428;2022-10-03T18:43:24;11.87;;;3.50;;
4434;SDS011;46552;52.150;8.428;2022-10-03T18:45:57;8.73;;;2.90;;
4434;SDS011;46552;52.150;8.428;2022-10-03T18:48:32;6.63;;;2.80;;
4434;SDS011;46552;52.150;8.428;2022-10-03T18:51:07;11.83;;;3.43;;
4434;SDS011;46552;52.150;8.428;2022-10-03T18:53:42;13.80;;;3.50;;
4434;SDS011;46552;52.150;8.428;2022-10-03T18:56:16;8.80;;;3.30;;
4434;SDS011;46552;52.150;8.428;2022-10-03T18:58:54;14.90;;;2.93;;
4434;SDS011;46552;52.150;8.428;2022-10-03T19:01:34;9.97;;;2.87;;
4434;SDS011;46552;52.150;8.428;2022-10-03T19:04:18;10.83;;;3.20;;
4434;SDS011;46552;52.150;8.428;2022-10-03T19:07:00;16.50;;;3.53;;
4434;SDS011;46552;52.150;8.428;2022-10-03T19:09:39;10.00;;;3.43;;
4434;SDS011;46552;52.150;8.428;2022-10-03T19:12:22;6.83;;;2.97;;
4434;SDS011;46552;52.150;8.428;2022-10-03T19:14:55;17.93;;;3.53;;
4434;SDS011;46552;52.150;8.428;2022-10-03T19:17:35;8.43;;;3.17;;
4434;SDS011;46552;52.150;8.428;2022-10-03T19:20:16;16.17;;;3.37;;
4434;SDS011;46552;52.150;8.428;2022-10-03T19:22:53;19.47;;;4.30;;
4434;SDS011;46552;52.150;8.428;2022-10-03T19:25:28;9.27;;;3.43;;
4434;SDS011;46552;52.150;8.428;2022-10-03T19:27:57;10.43;;;4.90;;
4434;SDS011;46552;52.150;8.428;2022-10-03T19:30:27;10.30;;;3.53;;
4434;SDS011;46552;52.150;8.428;2022-10-03T19:32:57;9.17;;;3.60;;
4434;SDS011;46552;52.150;8.428;2022-10-03T19:35:27;14.20;;;3.90;;